AAL7 KDFW-PHOG
Flight info
| Callsign | AAL7 |
|---|---|
| Flight time | N/A |
| Altitude | 34000 |
| Route | HUDAD2 HUDAD PNH DVC/N0486F360 IBSKI MLF RPARK MOD BRINY KO42C BAART R464 BILLO/N0477F380 R464 BITTA LNDHY1 |
| Aircraft | B77W/H-SDE1E2E3FGHIJ2J3J4J5M1RWXY/LB1D1 |
Departure
| Time | 2026-05-01 15:14 |
|---|---|
| Airport | Dallas Fort Worth International Airport (KDFW) |
Arrival
| Time | N/A |
|---|---|
| Airport | Kahului International Airport (PHOG) |
| Time | Latitude | Longitude | Altitude | Speed | Heading |
|---|---|---|---|---|---|
| 2026-05-01 14:52 | 32.90377 | -97.03506 | 591 ft | 0 kts | 312° |
| 2026-05-01 15:03 | 32.90375 | -97.03504 | 591 ft | 2 kts | 310° |
| 2026-05-01 15:03 | 32.90368 | -97.03486 | 591 ft | 2 kts | 274° |
| 2026-05-01 15:03 | 32.90369 | -97.03467 | 591 ft | 2 kts | 252° |
| 2026-05-01 15:03 | 32.90376 | -97.03449 | 591 ft | 2 kts | 237° |
| 2026-05-01 15:04 | 32.90386 | -97.03433 | 591 ft | 2 kts | 227° |
| 2026-05-01 15:04 | 32.90398 | -97.03420 | 591 ft | 2 kts | 217° |
| 2026-05-01 15:04 | 32.90410 | -97.03410 | 591 ft | 1 kts | 200° |
| 2026-05-01 15:04 | 32.90413 | -97.03408 | 591 ft | 0 kts | 185° |
| 2026-05-01 15:06 | 32.90401 | -97.03409 | 591 ft | 10 kts | 185° |
| 2026-05-01 15:06 | 32.90350 | -97.03358 | 591 ft | 11 kts | 120° |
| 2026-05-01 15:07 | 32.90288 | -97.03319 | 590 ft | 10 kts | 169° |
| 2026-05-01 15:07 | 32.90223 | -97.03314 | 589 ft | 8 kts | 177° |
| 2026-05-01 15:07 | 32.90207 | -97.03313 | 589 ft | 0 kts | 177° |
| 2026-05-01 15:07 | 32.90160 | -97.03313 | 590 ft | 10 kts | 180° |
| 2026-05-01 15:08 | 32.90084 | -97.03314 | 590 ft | 12 kts | 180° |
| 2026-05-01 15:08 | 32.89992 | -97.03315 | 590 ft | 14 kts | 180° |
| 2026-05-01 15:08 | 32.89889 | -97.03316 | 590 ft | 16 kts | 181° |
| 2026-05-01 15:08 | 32.89771 | -97.03317 | 591 ft | 18 kts | 178° |
| 2026-05-01 15:09 | 32.89639 | -97.03315 | 591 ft | 20 kts | 181° |
| 2026-05-01 15:09 | 32.89493 | -97.03318 | 590 ft | 22 kts | 181° |
| 2026-05-01 15:09 | 32.89330 | -97.03320 | 589 ft | 25 kts | 180° |
| 2026-05-01 15:09 | 32.89150 | -97.03322 | 588 ft | 27 kts | 180° |
| 2026-05-01 15:10 | 32.88963 | -97.03316 | 589 ft | 27 kts | 178° |
| 2026-05-01 15:10 | 32.88667 | -97.03316 | 588 ft | 19 kts | 182° |
| 2026-05-01 15:10 | 32.88526 | -97.03322 | 583 ft | 22 kts | 181° |
| 2026-05-01 15:11 | 32.88377 | -97.03297 | 587 ft | 22 kts | 167° |
| 2026-05-01 15:11 | 32.88076 | -97.03292 | 583 ft | 18 kts | 181° |
| 2026-05-01 15:11 | 32.87952 | -97.03288 | 583 ft | 18 kts | 167° |
| 2026-05-01 15:12 | 32.87905 | -97.03162 | 585 ft | 18 kts | 92° |
| 2026-05-01 15:12 | 32.87966 | -97.03007 | 577 ft | 0 kts | 358° |
| 2026-05-01 15:13 | 32.89420 | -97.02999 | 583 ft | 142 kts | 3° |
| 2026-05-01 15:14 | 32.91978 | -97.02985 | 952 ft | 203 kts | 2° |
| 2026-05-01 15:14 | 32.93409 | -97.02934 | 1684 ft | 202 kts | 359° |
| 2026-05-01 15:14 | 32.96429 | -97.03181 | 2321 ft | 240 kts | 349° |
| 2026-05-01 15:15 | 32.99824 | -97.03884 | 3597 ft | 252 kts | 350° |
| 2026-05-01 15:15 | 33.03312 | -97.04578 | 5051 ft | 256 kts | 350° |
| 2026-05-01 15:16 | 33.06549 | -97.06191 | 6251 ft | 262 kts | 311° |
| 2026-05-01 15:16 | 33.08024 | -97.10194 | 7242 ft | 275 kts | 278° |
| 2026-05-01 15:17 | 33.08426 | -97.14759 | 8442 ft | 279 kts | 261° |
| 2026-05-01 15:18 | 33.07278 | -97.21707 | 10291 ft | 291 kts | 259° |
| 2026-05-01 15:18 | 33.06880 | -97.24155 | 10519 ft | 312 kts | 259° |
| 2026-05-01 15:19 | 33.05526 | -97.32581 | 11396 ft | 371 kts | 259° |